createdAt,value
2019-04-20T00:00:25.243Z,997.76
2019-04-20T00:01:29.442Z,997.77
2019-04-20T00:02:25.438Z,997.76
2019-04-20T00:03:34.302Z,997.76
2019-04-20T00:04:29.039Z,997.81
2019-04-20T00:05:25.418Z,997.80
2019-04-20T00:06:25.422Z,997.81
2019-04-20T00:07:30.937Z,997.78
2019-04-20T00:08:29.687Z,997.78
2019-04-20T00:09:29.923Z,997.78
2019-04-20T00:10:27.631Z,997.77
2019-04-20T00:11:34.842Z,997.77
2019-04-20T00:12:36.744Z,997.80
2019-04-20T00:13:36.675Z,997.76
2019-04-20T00:14:30.937Z,997.77
2019-04-20T00:15:28.256Z,997.76
2019-04-20T00:16:27.371Z,997.78
2019-04-20T00:17:28.582Z,997.74
2019-04-20T00:18:34.733Z,997.77
2019-04-20T00:19:34.499Z,997.73
2019-04-20T00:20:32.104Z,997.71
2019-04-20T00:21:29.075Z,997.73
2019-04-20T00:22:34.396Z,997.73
2019-04-20T00:23:33.698Z,997.70
2019-04-20T00:24:33.229Z,997.72
2019-04-20T00:25:46.267Z,997.69
2019-04-20T00:27:01.863Z,997.69
2019-04-20T00:27:50.276Z,997.69
2019-04-20T00:28:45.757Z,997.69
2019-04-20T00:29:49.583Z,997.68
2019-04-20T00:30:50.486Z,997.69
2019-04-20T00:31:45.938Z,997.68
2019-04-20T00:32:49.011Z,997.66
2019-04-20T00:33:44.910Z,997.68
2019-04-20T00:34:36.464Z,997.62
2019-04-20T00:35:31.361Z,997.67
2019-04-20T00:36:31.060Z,997.66
2019-04-20T00:37:31.929Z,997.63
2019-04-20T00:38:35.103Z,997.69
2019-04-20T00:39:32.001Z,997.68
2019-04-20T00:40:32.647Z,997.66
2019-04-20T00:41:34.271Z,997.67
2019-04-20T00:42:39.159Z,997.63
2019-04-20T00:43:36.937Z,997.65
2019-04-20T00:44:35.859Z,997.61
2019-04-20T00:45:35.236Z,997.61
2019-04-20T00:46:48.663Z,997.63
2019-04-20T00:47:44.637Z,997.60
2019-04-20T00:48:46.345Z,997.60
2019-04-20T00:49:48.408Z,997.59
2019-04-20T00:50:52.555Z,997.65
2019-04-20T00:51:52.561Z,997.60
2019-04-20T00:52:50.862Z,997.63
2019-04-20T00:53:39.662Z,997.61
2019-04-20T00:54:34.923Z,997.60
2019-04-20T00:55:36.010Z,997.63
2019-04-20T00:56:35.117Z,997.63
2019-04-20T00:57:46.595Z,997.62
2019-04-20T00:58:50.789Z,997.62
2019-04-20T01:01:00.399Z,997.61
2019-04-20T01:01:52.135Z,997.62
2019-04-20T01:02:49.481Z,997.58
2019-04-20T01:03:52.125Z,997.59
2019-04-20T01:04:56.466Z,997.58
2019-04-20T01:05:59.688Z,997.59
2019-04-20T01:06:51.592Z,997.57
2019-04-20T01:07:43.164Z,997.55
2019-04-20T01:08:38.070Z,997.56
2019-04-20T01:09:37.277Z,997.54
2019-04-20T01:10:45.105Z,997.56
2019-04-20T01:11:42.240Z,997.53
2019-04-20T01:12:40.427Z,997.51
2019-04-20T01:13:45.934Z,997.50
2019-04-20T01:14:46.652Z,997.50
2019-04-20T01:15:47.971Z,997.51
2019-04-20T01:16:47.282Z,997.50
2019-04-20T01:17:41.530Z,997.53
2019-04-20T01:18:38.991Z,997.53
2019-04-20T01:19:39.176Z,997.50
2019-04-20T01:20:39.367Z,997.53
2019-04-20T01:21:44.959Z,997.50
2019-04-20T01:22:48.414Z,997.53
2019-04-20T01:23:47.992Z,997.54
2019-04-20T01:24:45.043Z,997.52
2019-04-20T01:25:43.687Z,997.54
2019-04-20T01:26:43.719Z,997.53
2019-04-20T01:28:02.126Z,997.50
2019-04-20T01:28:57.674Z,997.53
2019-04-20T01:29:46.988Z,997.53
2019-04-20T01:30:50.873Z,997.52
2019-04-20T01:31:57.099Z,997.51
2019-04-20T01:32:55.367Z,997.49
2019-04-20T01:33:52.732Z,997.47
2019-04-20T01:34:55.318Z,997.46
2019-04-20T01:36:00.672Z,997.45
2019-04-20T01:36:56.389Z,997.49
2019-04-20T01:38:00.255Z,997.43
2019-04-20T01:38:57.795Z,997.47
2019-04-20T01:39:48.701Z,997.45
2019-04-20T01:40:44.262Z,997.44
2019-04-20T01:41:43.530Z,997.43
2019-04-20T01:42:44.568Z,997.47
2019-04-20T01:43:43.699Z,997.45
2019-04-20T01:44:48.567Z,997.49
2019-04-20T01:45:45.509Z,997.47
2019-04-20T01:46:47.746Z,997.46
2019-04-20T01:47:49.285Z,997.50
2019-04-20T01:48:44.737Z,997.48
2019-04-20T01:49:47.706Z,997.49
2019-04-20T01:50:55.007Z,997.51
2019-04-20T01:51:52.446Z,997.50
2019-04-20T01:52:56.540Z,997.50
2019-04-20T01:53:59.963Z,997.52
2019-04-20T01:55:10.251Z,997.48
2019-04-20T01:56:01.605Z,997.52
2019-04-20T01:56:59.246Z,997.51
2019-04-20T01:58:07.993Z,997.49
2019-04-20T01:59:05.070Z,997.46
2019-04-20T01:59:58.099Z,997.46
2019-04-20T02:00:48.073Z,997.41
2019-04-20T02:01:47.531Z,997.43
2019-04-20T02:02:52.954Z,997.45
2019-04-20T02:03:51.786Z,997.46
2019-04-20T02:04:49.273Z,997.46
2019-04-20T02:05:55.657Z,997.43
2019-04-20T02:06:53.461Z,997.47
2019-04-20T02:07:51.980Z,997.49
2019-04-20T02:08:52.780Z,997.46
2019-04-20T02:09:56.079Z,997.50
2019-04-20T02:10:53.709Z,997.46
2019-04-20T02:11:52.020Z,997.49
2019-04-20T02:12:54.436Z,997.46
2019-04-20T02:13:55.010Z,997.44
2019-04-20T02:14:54.060Z,997.45
2019-04-20T02:15:55.638Z,997.41
2019-04-20T02:16:58.465Z,997.47
2019-04-20T02:18:03.642Z,997.43
2019-04-20T02:19:06.576Z,997.45
2019-04-20T02:20:12.307Z,997.45
2019-04-20T02:21:09.749Z,997.48
2019-04-20T02:22:04.104Z,997.48
2019-04-20T02:23:03.166Z,997.49
2019-04-20T02:23:57.287Z,997.47
2019-04-20T02:24:51.358Z,997.47
2019-04-20T02:25:52.244Z,997.48
2019-04-20T02:26:52.059Z,997.50
2019-04-20T02:27:58.065Z,997.51
2019-04-20T02:29:17.481Z,997.50
2019-04-20T02:30:22.038Z,997.49
2019-04-20T02:31:32.649Z,997.52
2019-04-20T02:32:23.689Z,997.51
2019-04-20T02:33:34.817Z,997.53
2019-04-20T02:34:33.911Z,997.50
2019-04-20T02:35:30.241Z,997.50
2019-04-20T02:36:29.970Z,997.52
2019-04-20T02:37:37.859Z,997.50
2019-04-20T02:38:40.646Z,997.50
2019-04-20T02:40:45.097Z,997.49
2019-04-20T02:41:29.874Z,997.49
2019-04-20T02:42:34.145Z,997.50
2019-04-20T02:43:38.917Z,997.50
2019-04-20T02:44:36.147Z,997.50
2019-04-20T02:46:28.627Z,997.46
2019-04-20T02:47:32.128Z,997.50
2019-04-20T02:48:25.944Z,997.48
2019-04-20T02:50:34.377Z,997.50
2019-04-20T02:51:38.660Z,997.48
2019-04-20T02:52:38.067Z,997.49
2019-04-20T02:53:30.186Z,997.49
2019-04-20T02:54:36.805Z,997.54
2019-04-20T02:56:32.366Z,997.49
2019-04-20T02:57:33.415Z,997.50
2019-04-20T02:58:32.697Z,997.48
2019-04-20T03:00:25.438Z,997.47
2019-04-20T03:01:16.226Z,997.47
2019-04-20T03:02:17.013Z,997.47
2019-04-20T03:03:11.326Z,997.46
2019-04-20T03:04:04.564Z,997.46
2019-04-20T03:05:12.267Z,997.44
2019-04-20T03:06:13.460Z,997.49
2019-04-20T03:07:14.877Z,997.49
2019-04-20T03:08:18.763Z,997.44
2019-04-20T03:09:21.354Z,997.50
2019-04-20T03:10:17.735Z,997.47
2019-04-20T03:11:17.777Z,997.50
2019-04-20T03:12:23.675Z,997.50
2019-04-20T03:13:18.296Z,997.45
2019-04-20T03:14:19.145Z,997.47
2019-04-20T03:15:21.839Z,997.48
2019-04-20T03:16:20.431Z,997.46
2019-04-20T03:17:27.096Z,997.45
2019-04-20T03:18:21.276Z,997.44
2019-04-20T03:19:17.457Z,997.44
2019-04-20T03:20:25.583Z,997.45
2019-04-20T03:21:28.961Z,997.45
2019-04-20T03:22:29.138Z,997.42
2019-04-20T03:23:30.065Z,997.43
2019-04-20T03:24:26.824Z,997.41
2019-04-20T03:25:22.839Z,997.47
2019-04-20T03:26:21.169Z,997.42
2019-04-20T03:27:19.547Z,997.41
2019-04-20T03:28:26.494Z,997.37
2019-04-20T03:29:18.328Z,997.40
2019-04-20T03:31:09.899Z,997.37
2019-04-20T03:31:42.663Z,997.42
2019-04-20T03:32:50.113Z,997.38
2019-04-20T03:33:41.339Z,997.39
2019-04-20T03:35:28.326Z,997.45
2019-04-20T03:36:39.383Z,997.43
2019-04-20T03:37:33.360Z,997.38
2019-04-20T03:38:30.215Z,997.46
2019-04-20T03:39:25.902Z,997.45
2019-04-20T03:40:22.723Z,997.44
2019-04-20T03:41:18.291Z,997.47
2019-04-20T03:42:07.147Z,997.45
2019-04-20T03:43:05.864Z,997.51
2019-04-20T03:44:12.196Z,997.53
2019-04-20T03:45:12.225Z,997.57
2019-04-20T03:46:10.862Z,997.52
2019-04-20T03:47:11.397Z,997.52
2019-04-20T03:48:27.883Z,997.53
2019-04-20T03:49:27.907Z,997.50
2019-04-20T03:50:34.628Z,997.51
2019-04-20T03:52:23.346Z,997.52
2019-04-20T03:53:31.282Z,997.53
2019-04-20T03:54:19.874Z,997.49
2019-04-20T03:55:26.223Z,997.49
2019-04-20T03:56:27.977Z,997.49
2019-04-20T03:57:29.725Z,997.49
2019-04-20T03:58:29.170Z,997.52
2019-04-20T03:59:20.794Z,997.48
2019-04-20T04:00:26.293Z,997.50
2019-04-20T04:01:43.005Z,997.50
2019-04-20T04:02:45.717Z,997.48
2019-04-20T04:03:36.402Z,997.45
2019-04-20T04:05:27.534Z,997.49
2019-04-20T04:06:23.503Z,997.50
2019-04-20T04:07:20.459Z,997.51
2019-04-20T04:08:21.555Z,997.50
2019-04-20T04:09:24.607Z,997.50
2019-04-20T04:10:24.977Z,997.46
2019-04-20T04:11:26.166Z,997.49
2019-04-20T04:12:21.788Z,997.52
2019-04-20T04:13:11.775Z,997.49
2019-04-20T04:14:11.708Z,997.51
2019-04-20T04:15:12.672Z,997.49
2019-04-20T04:16:14.780Z,997.52
2019-04-20T04:17:13.320Z,997.52
2019-04-20T04:18:21.351Z,997.55
2019-04-20T04:19:20.578Z,997.55
2019-04-20T04:20:16.235Z,997.58
2019-04-20T04:21:20.318Z,997.59
2019-04-20T04:22:24.904Z,997.60
2019-04-20T04:23:32.315Z,997.61
2019-04-20T04:24:26.050Z,997.60
2019-04-20T04:25:26.530Z,997.60
2019-04-20T04:26:30.138Z,997.60
2019-04-20T04:27:32.568Z,997.62
2019-04-20T04:28:35.255Z,997.60
2019-04-20T04:29:36.827Z,997.60
2019-04-20T04:30:32.008Z,997.64
2019-04-20T04:31:33.579Z,997.67
2019-04-20T04:33:03.011Z,997.67
2019-04-20T04:34:34.655Z,997.68
2019-04-20T04:35:26.723Z,997.65
2019-04-20T04:36:30.007Z,997.65
2019-04-20T04:37:32.471Z,997.67
2019-04-20T04:38:40.562Z,997.71
2019-04-20T04:39:35.329Z,997.73
2019-04-20T04:40:42.815Z,997.78
2019-04-20T04:41:36.691Z,997.80
2019-04-20T04:42:42.306Z,997.84
2019-04-20T04:43:38.874Z,997.97
2019-04-20T04:44:30.251Z,997.95
2019-04-20T04:45:19.370Z,997.93
2019-04-20T04:46:18.569Z,997.97
2019-04-20T04:47:18.134Z,997.97
2019-04-20T04:48:23.927Z,998.04
2019-04-20T04:49:25.734Z,998.17
2019-04-20T04:50:23.267Z,998.26
2019-04-20T04:51:23.009Z,998.15
2019-04-20T04:52:29.389Z,997.96
2019-04-20T04:53:31.269Z,997.93
2019-04-20T04:54:28.944Z,997.91
2019-04-20T04:55:30.823Z,997.92
2019-04-20T04:56:23.309Z,997.91
2019-04-20T04:57:20.108Z,997.88
2019-04-20T04:58:19.796Z,997.97
2019-04-20T04:59:21.311Z,998.04
2019-04-20T05:00:24.664Z,998.12
2019-04-20T05:01:25.911Z,998.06
2019-04-20T05:02:23.609Z,998.23
2019-04-20T05:03:38.746Z,998.52
2019-04-20T05:04:44.502Z,999.13
2019-04-20T05:05:46.279Z,999.44
2019-04-20T05:06:35.592Z,999.41
2019-04-20T05:07:36.805Z,1000.00
2019-04-20T05:08:30.653Z,1000.23
2019-04-20T05:09:22.639Z,1000.30
2019-04-20T05:10:22.402Z,1000.54
2019-04-20T05:11:23.687Z,1000.63
2019-04-20T05:12:26.713Z,1000.69
2019-04-20T05:13:27.686Z,1000.84
2019-04-20T05:14:37.448Z,1000.88
2019-04-20T05:15:37.339Z,1000.78
2019-04-20T05:16:43.184Z,1000.57
2019-04-20T05:17:43.449Z,1000.69
2019-04-20T05:18:45.729Z,1000.90
2019-04-20T05:19:49.785Z,1000.84
2019-04-20T05:20:50.992Z,1000.70
2019-04-20T05:21:49.916Z,1000.91
2019-04-20T05:22:42.501Z,1001.24
2019-04-20T05:23:35.172Z,1001.29
2019-04-20T05:24:38.946Z,1001.36
2019-04-20T05:25:49.296Z,1001.46
2019-04-20T05:26:36.294Z,1001.32
2019-04-20T05:27:45.183Z,1001.26
2019-04-20T05:28:38.101Z,1001.26
2019-04-20T05:29:30.452Z,1001.35
2019-04-20T05:30:26.603Z,1001.41
2019-04-20T05:31:36.773Z,1001.36
2019-04-20T05:32:35.844Z,1001.43
2019-04-20T05:33:47.845Z,1001.49
2019-04-20T05:34:52.812Z,1001.48
2019-04-20T05:35:43.443Z,1001.41
2019-04-20T05:36:41.624Z,1001.53
2019-04-20T05:37:53.633Z,1001.45
2019-04-20T05:38:48.931Z,1001.45
2019-04-20T05:39:56.249Z,1001.53
2019-04-20T05:40:50.323Z,1001.56
2019-04-20T05:41:45.356Z,1001.47
2019-04-20T05:42:48.609Z,1001.31
2019-04-20T05:43:45.682Z,1001.30
2019-04-20T05:44:52.771Z,1001.26
2019-04-20T05:45:41.407Z,1001.24
2019-04-20T05:46:47.459Z,1001.28
2019-04-20T05:47:50.746Z,1001.15
2019-04-20T05:48:50.509Z,1001.04
2019-04-20T05:49:46.221Z,1000.84
2019-04-20T05:50:50.909Z,1000.74
2019-04-20T05:51:49.889Z,1000.81
2019-04-20T05:52:56.265Z,1000.71
2019-04-20T05:53:50.466Z,1000.70
2019-04-20T05:54:51.313Z,1000.68
2019-04-20T05:55:50.344Z,1000.64
2019-04-20T05:56:51.075Z,1000.60
2019-04-20T05:57:57.019Z,1000.44
2019-04-20T05:58:50.807Z,1000.42
2019-04-20T05:59:56.808Z,1000.34
2019-04-20T06:00:55.132Z,1000.32
2019-04-20T06:01:58.815Z,1000.19
2019-04-20T06:02:52.390Z,1000.07
2019-04-20T06:03:53.013Z,999.95
2019-04-20T06:05:11.419Z,999.92
2019-04-20T06:05:58.251Z,999.93
2019-04-20T06:06:56.405Z,999.86
2019-04-20T06:07:55.084Z,999.85
2019-04-20T06:08:59.873Z,999.88
2019-04-20T06:09:54.477Z,999.85
2019-04-20T06:10:56.513Z,999.85
2019-04-20T06:12:08.954Z,999.84
2019-04-20T06:12:54.159Z,999.86
2019-04-20T06:13:47.023Z,999.82
2019-04-20T06:14:47.152Z,999.85
2019-04-20T06:15:59.838Z,999.86
2019-04-20T06:17:00.053Z,999.86
2019-04-20T06:17:53.117Z,999.86
2019-04-20T06:18:58.419Z,999.80
2019-04-20T06:20:02.346Z,999.80
2019-04-20T06:20:54.775Z,999.85
2019-04-20T06:21:57.518Z,999.80
2019-04-20T06:23:05.950Z,999.84
2019-04-20T06:23:56.479Z,999.81
2019-04-20T06:25:04.537Z,999.80
2019-04-20T06:27:00.980Z,999.84
2019-04-20T06:28:01.010Z,999.84
2019-04-20T06:28:51.590Z,999.82
2019-04-20T06:29:55.791Z,999.86
2019-04-20T06:30:52.856Z,999.91
2019-04-20T06:31:57.981Z,999.92
2019-04-20T06:32:59.248Z,999.93
2019-04-20T06:34:19.879Z,999.96
2019-04-20T06:34:55.950Z,999.94
2019-04-20T06:37:14.122Z,999.93
2019-04-20T06:38:00.761Z,999.95
2019-04-20T06:39:08.340Z,999.99
2019-04-20T06:40:22.151Z,999.97
2019-04-20T06:42:15.161Z,999.96
2019-04-20T06:43:04.137Z,999.99
2019-04-20T06:44:08.398Z,999.98
2019-04-20T06:45:04.230Z,999.98
2019-04-20T06:47:15.474Z,1000.01
2019-04-20T06:48:08.757Z,1000.01
2019-04-20T06:49:10.410Z,1000.00
2019-04-20T06:50:01.481Z,1000.01
2019-04-20T06:50:59.433Z,1000.04
2019-04-20T06:52:12.763Z,1000.05
2019-04-20T06:53:11.115Z,1000.03
2019-04-20T06:53:53.985Z,1000.04
2019-04-20T06:54:57.728Z,1000.07
2019-04-20T06:56:06.661Z,1000.03
2019-04-20T06:57:05.851Z,1000.00
2019-04-20T06:58:01.537Z,999.97
2019-04-20T06:59:12.345Z,999.90
2019-04-20T07:00:10.234Z,999.94
2019-04-20T07:01:08.024Z,999.94
2019-04-20T07:02:11.947Z,999.92
2019-04-20T07:03:05.740Z,999.89
2019-04-20T07:04:22.377Z,999.87
2019-04-20T07:05:10.055Z,999.90
2019-04-20T07:06:24.952Z,999.87
2019-04-20T07:07:11.350Z,999.84
2019-04-20T07:08:16.953Z,999.83
2019-04-20T07:09:22.003Z,999.81
2019-04-20T07:10:14.708Z,999.83
2019-04-20T07:11:16.521Z,999.81
2019-04-20T07:12:04.113Z,999.83
2019-04-20T07:13:02.714Z,999.83
2019-04-20T07:13:55.629Z,999.85
2019-04-20T07:14:55.511Z,999.84
2019-04-20T07:16:06.100Z,999.80
2019-04-20T07:17:21.553Z,999.75
2019-04-20T07:18:11.743Z,999.79
2019-04-20T07:19:09.217Z,999.80
2019-04-20T07:20:04.135Z,999.80
2019-04-20T07:21:07.186Z,999.73
2019-04-20T07:22:23.401Z,999.77
2019-04-20T07:23:18.970Z,999.80
2019-04-20T07:24:12.138Z,999.81
2019-04-20T07:25:07.602Z,999.78
2019-04-20T07:26:21.148Z,999.77
2019-04-20T07:27:06.445Z,999.75
2019-04-20T07:28:14.107Z,999.79
2019-04-20T07:29:15.929Z,999.76
2019-04-20T07:30:13.747Z,999.76
2019-04-20T07:31:01.686Z,999.82
2019-04-20T07:32:07.611Z,999.82
2019-04-20T07:33:13.824Z,999.83
2019-04-20T07:34:11.804Z,999.86
2019-04-20T07:35:08.758Z,999.88
2019-04-20T07:37:41.488Z,999.88
2019-04-20T07:38:25.555Z,999.88
2019-04-20T07:39:13.535Z,999.84
2019-04-20T07:40:17.607Z,999.86
2019-04-20T07:41:23.651Z,999.84
2019-04-20T07:42:19.263Z,999.81
2019-04-20T07:43:09.300Z,999.82
2019-04-20T07:44:21.560Z,999.81
2019-04-20T07:45:14.828Z,999.78
2019-04-20T07:46:20.786Z,999.78
2019-04-20T07:47:22.008Z,999.76
2019-04-20T07:48:18.756Z,999.79
2019-04-20T07:49:12.778Z,999.80
2019-04-20T07:50:09.117Z,999.82
2019-04-20T07:51:04.903Z,999.86
2019-04-20T07:51:55.198Z,999.89
2019-04-20T07:53:12.476Z,999.89
2019-04-20T07:54:30.313Z,999.87
2019-04-20T07:56:16.317Z,999.83
2019-04-20T07:57:14.770Z,999.82
2019-04-20T07:58:05.262Z,999.84
2019-04-20T07:59:11.009Z,999.84
2019-04-20T08:00:14.858Z,999.87
2019-04-20T08:01:23.719Z,999.90
2019-04-20T08:02:23.759Z,999.85
2019-04-20T08:03:24.317Z,999.84
2019-04-20T08:04:18.451Z,999.87
2019-04-20T08:05:10.748Z,999.84
2019-04-20T08:06:05.050Z,999.83
2019-04-20T08:07:03.387Z,999.85
2019-04-20T08:08:16.982Z,999.86
2019-04-20T08:09:12.761Z,999.87
2019-04-20T08:10:04.018Z,999.80
2019-04-20T08:11:13.822Z,999.83
2019-04-20T08:12:25.838Z,999.88
2019-04-20T08:13:25.433Z,999.89
2019-04-20T08:14:37.994Z,999.89
2019-04-20T08:15:32.834Z,999.89
2019-04-20T08:16:24.419Z,999.82
2019-04-20T08:17:30.588Z,999.82
2019-04-20T08:18:21.030Z,999.83
2019-04-20T08:19:17.433Z,999.78
2019-04-20T08:20:15.963Z,999.80
2019-04-20T08:21:24.298Z,999.74
2019-04-20T08:22:23.042Z,999.79
2019-04-20T08:23:23.371Z,999.73
2019-04-20T08:24:20.128Z,999.77
2019-04-20T08:25:14.314Z,999.73
2019-04-20T08:26:10.895Z,999.72
2019-04-20T08:27:06.158Z,999.75
2019-04-20T08:28:01.574Z,999.70
2019-04-20T08:29:08.958Z,999.69
2019-04-20T08:30:20.755Z,999.69
2019-04-20T08:31:18.195Z,999.67
2019-04-20T08:32:25.505Z,999.66
2019-04-20T08:33:18.003Z,999.67
2019-04-20T08:34:28.246Z,999.68
2019-04-20T08:35:27.941Z,999.63
2019-04-20T08:36:27.240Z,999.60
2019-04-20T08:37:20.622Z,999.63
2019-04-20T08:38:49.905Z,999.62
2019-04-20T08:39:37.435Z,999.60
2019-04-20T08:40:25.402Z,999.55
2019-04-20T08:41:23.220Z,999.55
2019-04-20T08:42:22.378Z,999.51
2019-04-20T08:43:39.563Z,999.37
2019-04-20T08:45:31.642Z,999.08
2019-04-20T08:46:27.853Z,999.06
2019-04-20T08:47:35.148Z,998.99
2019-04-20T08:48:31.279Z,999.01
2019-04-20T08:49:29.464Z,999.00
2019-04-20T08:50:41.254Z,998.95
2019-04-20T08:51:25.767Z,998.97
2019-04-20T08:52:53.676Z,998.96
2019-04-20T08:53:30.776Z,998.96
2019-04-20T08:54:21.955Z,998.92
2019-04-20T08:55:25.136Z,998.93
2019-04-20T08:56:19.791Z,998.93
2019-04-20T08:57:07.387Z,998.95
2019-04-20T08:58:07.528Z,998.95
2019-04-20T08:59:07.726Z,998.98
2019-04-20T09:00:09.152Z,998.95
2019-04-20T09:01:10.485Z,998.93
2019-04-20T09:02:11.983Z,998.93
2019-04-20T09:03:17.102Z,998.91
2019-04-20T09:04:17.194Z,998.88
2019-04-20T09:05:18.951Z,998.93
2019-04-20T09:06:22.393Z,998.91
2019-04-20T09:07:17.464Z,998.88
2019-04-20T09:08:17.921Z,998.92
2019-04-20T09:09:37.793Z,998.89
2019-04-20T09:10:34.447Z,998.89
2019-04-20T09:11:26.085Z,998.90
2019-04-20T09:12:30.545Z,998.91
2019-04-20T09:13:21.444Z,998.90
2019-04-20T09:14:12.128Z,998.91
2019-04-20T09:15:12.429Z,998.90
2019-04-20T09:16:11.282Z,998.89
2019-04-20T09:17:18.297Z,998.90
2019-04-20T09:18:22.623Z,998.91
2019-04-20T09:19:16.070Z,998.89
2019-04-20T09:20:21.506Z,998.87
2019-04-20T09:21:24.301Z,998.91
2019-04-20T09:22:25.530Z,998.98
2019-04-20T09:23:30.038Z,998.94
2019-04-20T09:24:36.153Z,998.90
2019-04-20T09:26:35.457Z,998.97
2019-04-20T09:27:26.991Z,998.99
2019-04-20T09:28:23.487Z,999.00
2019-04-20T09:29:28.454Z,998.97
2019-04-20T09:30:28.695Z,998.96
2019-04-20T09:31:30.993Z,998.89
2019-04-20T09:32:28.962Z,998.88
2019-04-20T09:33:38.710Z,998.89
2019-04-20T09:34:37.058Z,998.93
2019-04-20T09:35:30.114Z,998.92
2019-04-20T09:36:30.749Z,998.89
2019-04-20T09:37:33.970Z,998.85
2019-04-20T09:38:30.500Z,998.89
2019-04-20T09:39:24.635Z,998.84
2019-04-20T09:40:38.921Z,998.85
2019-04-20T09:41:45.227Z,998.76
2019-04-20T09:42:16.664Z,998.80
2019-04-20T09:43:18.533Z,998.77
2019-04-20T09:44:17.715Z,998.78
2019-04-20T09:45:23.456Z,998.69
2019-04-20T09:46:17.952Z,998.69
2019-04-20T09:47:23.311Z,998.72
2019-04-20T09:48:25.364Z,998.70
2019-04-20T09:49:29.530Z,998.68
2019-04-20T09:50:33.451Z,998.66
2019-04-20T09:51:37.670Z,998.69
2019-04-20T09:52:32.274Z,998.67
2019-04-20T09:53:29.911Z,998.65
2019-04-20T09:54:36.086Z,998.66
2019-04-20T09:55:31.301Z,998.66
2019-04-20T09:56:38.811Z,998.67
2019-04-20T09:57:37.923Z,998.62
2019-04-20T09:58:30.845Z,998.61
2019-04-20T09:59:37.260Z,998.58
2019-04-20T10:00:41.153Z,998.58
2019-04-20T10:01:31.086Z,998.56
2019-04-20T10:02:24.960Z,998.55
2019-04-20T10:03:21.015Z,998.54
2019-04-20T10:04:21.622Z,998.60
2019-04-20T10:05:21.425Z,998.56
2019-04-20T10:06:24.769Z,998.55
2019-04-20T10:07:25.665Z,998.49
2019-04-20T10:08:22.045Z,998.50
2019-04-20T10:09:29.500Z,998.51
2019-04-20T10:10:31.589Z,998.44
2019-04-20T10:11:23.641Z,998.48
2019-04-20T10:12:24.113Z,998.52
2019-04-20T10:13:23.069Z,998.50
2019-04-20T10:14:24.722Z,998.47
2019-04-20T10:15:27.601Z,998.39
2019-04-20T10:16:23.882Z,998.47
2019-04-20T10:17:26.659Z,998.42
2019-04-20T10:18:24.091Z,998.43
2019-04-20T10:19:30.179Z,998.40
2019-04-20T10:20:31.011Z,998.43
2019-04-20T10:21:25.725Z,998.40
2019-04-20T10:22:24.908Z,998.37
2019-04-20T10:23:25.159Z,998.39
2019-04-20T10:24:26.450Z,998.35
2019-04-20T10:25:26.673Z,998.31
2019-04-20T10:26:26.945Z,998.38
2019-04-20T10:27:26.465Z,998.32
2019-04-20T10:28:27.413Z,998.29
2019-04-20T10:29:26.345Z,998.34
2019-04-20T10:30:26.556Z,998.29
2019-04-20T10:31:26.769Z,998.25
2019-04-20T10:32:34.213Z,998.24
2019-04-20T10:33:27.839Z,998.20
2019-04-20T10:34:28.510Z,998.22
2019-04-20T10:35:27.660Z,998.18
2019-04-20T10:36:27.837Z,998.17
2019-04-20T10:37:29.265Z,998.22
2019-04-20T10:38:30.975Z,998.19
2019-04-20T10:39:28.777Z,998.13
2019-04-20T10:40:41.508Z,998.18
2019-04-20T10:41:38.000Z,998.12
2019-04-20T10:42:30.157Z,998.08
2019-04-20T10:43:30.222Z,998.05
2019-04-20T10:44:29.445Z,998.04
2019-04-20T10:45:30.824Z,998.05
2019-04-20T10:46:31.037Z,998.00
2019-04-20T10:47:30.038Z,998.01
2019-04-20T10:48:32.868Z,998.01
2019-04-20T10:49:31.165Z,998.01
2019-04-20T10:50:32.155Z,998.02
2019-04-20T10:51:31.461Z,998.06
2019-04-20T10:52:32.026Z,998.01
2019-04-20T10:53:32.182Z,998.01
2019-04-20T10:54:32.385Z,998.02
2019-04-20T10:55:31.683Z,997.99
2019-04-20T10:56:31.884Z,997.97
2019-04-20T10:57:33.310Z,997.97
2019-04-20T10:58:33.647Z,997.95
2019-04-20T10:59:33.904Z,997.95
2019-04-20T11:00:33.415Z,997.91
2019-04-20T11:01:33.740Z,997.97
2019-04-20T11:02:35.009Z,997.96
2019-04-20T11:03:34.566Z,997.97
2019-04-20T11:04:34.593Z,997.98
2019-04-20T11:05:34.773Z,997.95
2019-04-20T11:06:34.544Z,998.02
2019-04-20T11:07:34.660Z,997.99
2019-04-20T11:08:34.862Z,997.94
2019-04-20T11:09:34.560Z,997.94
2019-04-20T11:10:49.400Z,997.99
2019-04-20T11:11:35.791Z,997.95
2019-04-20T11:12:35.179Z,997.92
2019-04-20T11:13:35.385Z,997.90
2019-04-20T11:14:38.755Z,997.86
2019-04-20T11:15:36.651Z,997.86
2019-04-20T11:16:36.182Z,997.81
2019-04-20T11:17:37.140Z,997.75
2019-04-20T11:18:37.583Z,997.78
2019-04-20T11:19:37.125Z,997.75
2019-04-20T11:20:37.305Z,997.76
2019-04-20T11:21:37.026Z,997.75
2019-04-20T11:22:38.017Z,997.70
2019-04-20T11:23:38.317Z,997.70
2019-04-20T11:24:38.609Z,997.66
2019-04-20T11:25:38.040Z,997.63
2019-04-20T11:26:39.705Z,997.57
2019-04-20T11:27:38.395Z,997.52
2019-04-20T11:28:38.429Z,997.49
2019-04-20T11:29:38.627Z,997.37
2019-04-20T11:30:38.830Z,997.33
2019-04-20T11:31:44.308Z,997.36
2019-04-20T11:32:40.214Z,997.41
2019-04-20T11:33:40.401Z,997.36
2019-04-20T11:34:41.687Z,997.37
2019-04-20T11:35:43.048Z,997.39
2019-04-20T11:36:41.144Z,997.35
2019-04-20T11:37:40.245Z,997.30
2019-04-20T11:38:40.759Z,997.27
2019-04-20T11:39:41.095Z,997.25
2019-04-20T11:40:42.098Z,997.23
2019-04-20T11:41:41.500Z,997.26
2019-04-20T11:42:41.634Z,997.21
2019-04-20T11:43:41.962Z,997.14
2019-04-20T11:44:42.430Z,997.17
2019-04-20T11:45:42.716Z,997.16
2019-04-20T11:46:42.942Z,997.19
2019-04-20T11:47:43.285Z,997.08
2019-04-20T11:48:43.474Z,997.15
2019-04-20T11:49:43.718Z,997.16
2019-04-20T11:50:43.416Z,997.13
2019-04-20T11:51:43.506Z,997.14
2019-04-20T11:52:47.534Z,997.12
2019-04-20T11:53:43.445Z,997.15
2019-04-20T11:54:44.363Z,997.14
2019-04-20T11:55:44.581Z,997.12
2019-04-20T11:56:47.162Z,997.12
2019-04-20T11:57:45.240Z,997.05
2019-04-20T11:58:44.899Z,997.08
2019-04-20T11:59:45.301Z,997.07
2019-04-20T12:00:53.978Z,997.04
2019-04-20T12:01:51.980Z,997.01
2019-04-20T12:02:47.618Z,996.99
2019-04-20T12:03:56.476Z,996.98
2019-04-20T12:04:51.846Z,996.92
2019-04-20T12:05:51.510Z,996.95
2019-04-20T12:06:46.608Z,996.96
2019-04-20T12:07:46.928Z,996.96
2019-04-20T12:08:47.059Z,996.97
2019-04-20T12:09:47.296Z,996.97
2019-04-20T12:10:49.406Z,997.01
2019-04-20T12:11:59.715Z,996.92
2019-04-20T12:12:50.476Z,996.91
2019-04-20T12:13:48.605Z,996.87
2019-04-20T12:14:48.484Z,996.81
2019-04-20T12:15:47.818Z,996.81
2019-04-20T12:16:48.014Z,996.84
2019-04-20T12:17:49.409Z,996.87
2019-04-20T12:18:48.406Z,996.86
2019-04-20T12:19:50.070Z,996.86
2019-04-20T12:20:48.809Z,996.83
2019-04-20T12:21:49.656Z,996.83
2019-04-20T12:22:50.361Z,996.80
2019-04-20T12:23:49.406Z,996.76
2019-04-20T12:24:50.007Z,996.83
2019-04-20T12:25:50.187Z,996.80
2019-04-20T12:26:51.021Z,996.80
2019-04-20T12:27:53.825Z,996.77
2019-04-20T12:28:51.547Z,996.80
2019-04-20T12:29:51.955Z,996.81
2019-04-20T12:30:51.520Z,996.80
2019-04-20T12:31:56.263Z,996.82
2019-04-20T12:32:55.440Z,996.86
2019-04-20T12:33:52.525Z,996.78
2019-04-20T12:34:51.561Z,996.79
2019-04-20T12:35:52.156Z,996.78
2019-04-20T12:36:53.210Z,996.76
2019-04-20T12:37:52.151Z,996.72
2019-04-20T12:38:53.149Z,996.76
2019-04-20T12:39:53.268Z,996.72
2019-04-20T12:40:52.773Z,996.71
2019-04-20T12:41:57.936Z,996.71
2019-04-20T12:42:53.150Z,996.70
2019-04-20T12:43:53.895Z,996.74
2019-04-20T12:44:53.558Z,996.71
2019-04-20T12:45:53.897Z,996.70
2019-04-20T12:46:54.031Z,996.68